sensor_id;sensor_type;location;lat;lon;timestamp;pressure;altitude;pressure_sealevel;temperature;humidity
6532;BME280;3299;42.004;24.868;2024-01-30T00:00:54;100308.03;;;4.15;63.25
6532;BME280;3299;42.004;24.868;2024-01-30T00:03:19;100237.69;;;3.73;63.50
6532;BME280;3299;42.004;24.868;2024-01-30T00:05:45;100252.81;;;3.94;63.83
6532;BME280;3299;42.004;24.868;2024-01-30T00:08:10;100254.50;;;3.95;63.25
6532;BME280;3299;42.004;24.868;2024-01-30T00:10:36;100313.06;;;4.22;63.19
6532;BME280;3299;42.004;24.868;2024-01-30T00:13:01;100258.84;;;3.89;63.82
6532;BME280;3299;42.004;24.868;2024-01-30T00:15:27;100316.53;;;4.15;64.15
6532;BME280;3299;42.004;24.868;2024-01-30T00:17:53;100212.38;;;3.51;64.30
6532;BME280;3299;42.004;24.868;2024-01-30T00:20:19;100323.38;;;4.16;63.33
6532;BME280;3299;42.004;24.868;2024-01-30T00:22:44;100241.94;;;3.77;63.52
6532;BME280;3299;42.004;24.868;2024-01-30T00:25:09;100322.47;;;4.20;63.33
6532;BME280;3299;42.004;24.868;2024-01-30T00:27:35;100313.97;;;4.18;63.50
6532;BME280;3299;42.004;24.868;2024-01-30T00:30:01;100218.25;;;3.57;63.97
6532;BME280;3299;42.004;24.868;2024-01-30T00:32:26;100307.31;;;4.02;64.92
6532;BME280;3299;42.004;24.868;2024-01-30T00:34:51;100243.09;;;3.49;64.99
6532;BME280;3299;42.004;24.868;2024-01-30T00:37:17;100232.19;;;3.34;65.80
6532;BME280;3299;42.004;24.868;2024-01-30T00:39:42;100307.59;;;3.81;66.14
6532;BME280;3299;42.004;24.868;2024-01-30T00:42:08;100233.88;;;3.38;66.02
6532;BME280;3299;42.004;24.868;2024-01-30T00:44:37;100296.50;;;3.82;65.81
6532;BME280;3299;42.004;24.868;2024-01-30T00:47:04;100236.31;;;3.45;65.36
6532;BME280;3299;42.004;24.868;2024-01-30T00:49:29;100278.63;;;3.76;65.09
6532;BME280;3299;42.004;24.868;2024-01-30T00:51:55;100275.28;;;3.70;65.10
6532;BME280;3299;42.004;24.868;2024-01-30T00:54:20;100217.75;;;3.28;64.92
6532;BME280;3299;42.004;24.868;2024-01-30T00:56:46;100326.16;;;3.98;65.35
6532;BME280;3299;42.004;24.868;2024-01-30T00:59:11;100254.06;;;3.60;65.94
6532;BME280;3299;42.004;24.868;2024-01-30T01:01:37;100303.38;;;3.77;66.55
6532;BME280;3299;42.004;24.868;2024-01-30T01:04:02;100313.66;;;3.73;67.01
6532;BME280;3299;42.004;24.868;2024-01-30T01:06:28;100306.19;;;3.53;68.68
6532;BME280;3299;42.004;24.868;2024-01-30T01:08:53;100217.13;;;3.08;68.20
6532;BME280;3299;42.004;24.868;2024-01-30T01:11:18;100247.56;;;3.32;68.12
6532;BME280;3299;42.004;24.868;2024-01-30T01:13:44;100306.72;;;3.82;67.57
6532;BME280;3299;42.004;24.868;2024-01-30T01:16:09;100219.34;;;3.40;67.11
6532;BME280;3299;42.004;24.868;2024-01-30T01:18:35;100258.47;;;3.49;67.22
6532;BME280;3299;42.004;24.868;2024-01-30T01:21:00;100301.75;;;3.67;67.54
6532;BME280;3299;42.004;24.868;2024-01-30T01:23:26;100273.75;;;3.55;66.73
6532;BME280;3299;42.004;24.868;2024-01-30T01:25:51;100212.31;;;2.77;67.11
6532;BME280;3299;42.004;24.868;2024-01-30T01:28:17;100229.97;;;3.02;66.89
6532;BME280;3299;42.004;24.868;2024-01-30T01:30:42;100273.94;;;3.40;66.07
6532;BME280;3299;42.004;24.868;2024-01-30T01:33:08;100267.81;;;3.52;65.52
6532;BME280;3299;42.004;24.868;2024-01-30T01:35:34;100288.09;;;3.70;64.72
6532;BME280;3299;42.004;24.868;2024-01-30T01:38:00;100261.75;;;3.60;66.01
6532;BME280;3299;42.004;24.868;2024-01-30T01:40:27;100276.19;;;3.66;66.28
6532;BME280;3299;42.004;24.868;2024-01-30T01:42:53;100189.72;;;3.18;66.60
6532;BME280;3299;42.004;24.868;2024-01-30T01:45:20;100237.03;;;3.61;66.66
6532;BME280;3299;42.004;24.868;2024-01-30T01:47:48;100186.97;;;3.37;66.56
6532;BME280;3299;42.004;24.868;2024-01-30T01:50:16;100227.59;;;3.61;66.27
6532;BME280;3299;42.004;24.868;2024-01-30T01:52:47;100281.91;;;3.87;66.47
6532;BME280;3299;42.004;24.868;2024-01-30T01:55:13;100265.72;;;3.85;65.95
6532;BME280;3299;42.004;24.868;2024-01-30T01:57:38;100181.84;;;3.34;65.51
6532;BME280;3299;42.004;24.868;2024-01-30T02:00:04;100197.97;;;3.44;65.77
6532;BME280;3299;42.004;24.868;2024-01-30T02:02:31;100271.53;;;3.96;63.96
6532;BME280;3299;42.004;24.868;2024-01-30T02:05:00;100255.38;;;3.93;62.00
6532;BME280;3299;42.004;24.868;2024-01-30T02:07:26;100272.41;;;3.95;62.82
6532;BME280;3299;42.004;24.868;2024-01-30T02:09:52;100226.75;;;3.62;63.61
6532;BME280;3299;42.004;24.868;2024-01-30T02:12:18;100258.97;;;3.78;65.16
6532;BME280;3299;42.004;24.868;2024-01-30T02:14:47;100270.91;;;3.81;65.63
6532;BME280;3299;42.004;24.868;2024-01-30T02:17:13;100260.75;;;3.72;65.65
6532;BME280;3299;42.004;24.868;2024-01-30T02:19:39;100226.13;;;3.42;65.74
6532;BME280;3299;42.004;24.868;2024-01-30T02:22:05;100284.63;;;3.74;66.02
6532;BME280;3299;42.004;24.868;2024-01-30T02:24:30;100294.91;;;3.71;66.67
6532;BME280;3299;42.004;24.868;2024-01-30T02:26:56;100291.44;;;3.75;66.73
6532;BME280;3299;42.004;24.868;2024-01-30T02:29:21;100290.50;;;3.82;67.55
6532;BME280;3299;42.004;24.868;2024-01-30T02:31:47;100259.09;;;3.68;67.45
6532;BME280;3299;42.004;24.868;2024-01-30T02:34:13;100288.88;;;3.76;67.83
6532;BME280;3299;42.004;24.868;2024-01-30T02:36:38;100292.31;;;3.75;68.24
6532;BME280;3299;42.004;24.868;2024-01-30T02:39:04;100291.38;;;3.82;67.83
6532;BME280;3299;42.004;24.868;2024-01-30T02:41:30;100231.28;;;3.39;67.81
6532;BME280;3299;42.004;24.868;2024-01-30T02:43:55;100261.88;;;3.48;68.58
6532;BME280;3299;42.004;24.868;2024-01-30T02:46:21;100250.00;;;3.43;69.09
6532;BME280;3299;42.004;24.868;2024-01-30T02:48:46;100200.84;;;3.15;69.86
6532;BME280;3299;42.004;24.868;2024-01-30T02:51:11;100273.59;;;3.67;68.48
6532;BME280;3299;42.004;24.868;2024-01-30T02:53:37;100285.38;;;3.83;68.23
6532;BME280;3299;42.004;24.868;2024-01-30T02:56:03;100301.75;;;3.69;68.22
6532;BME280;3299;42.004;24.868;2024-01-30T02:58:28;100202.59;;;3.10;68.42
6532;BME280;3299;42.004;24.868;2024-01-30T03:00:54;100302.72;;;3.57;67.83
6532;BME280;3299;42.004;24.868;2024-01-30T03:03:19;100313.06;;;3.48;67.74
6532;BME280;3299;42.004;24.868;2024-01-30T03:05:44;100264.69;;;3.24;67.41
6532;BME280;3299;42.004;24.868;2024-01-30T03:08:10;100219.91;;;2.84;67.77
6532;BME280;3299;42.004;24.868;2024-01-30T03:10:35;100274.13;;;3.16;67.71
6532;BME280;3299;42.004;24.868;2024-01-30T03:13:01;100210.56;;;2.83;67.68
6532;BME280;3299;42.004;24.868;2024-01-30T03:15:26;100225.78;;;2.94;67.27
6532;BME280;3299;42.004;24.868;2024-01-30T03:17:53;100274.06;;;3.25;67.13
6532;BME280;3299;42.004;24.868;2024-01-30T03:20:19;100268.97;;;3.22;66.73
6532;BME280;3299;42.004;24.868;2024-01-30T03:22:44;100314.94;;;3.31;68.09
6532;BME280;3299;42.004;24.868;2024-01-30T03:25:10;100261.63;;;2.91;69.25
6532;BME280;3299;42.004;24.868;2024-01-30T03:27:35;100214.13;;;2.63;69.71
6532;BME280;3299;42.004;24.868;2024-01-30T03:30:01;100260.69;;;2.96;70.13
6532;BME280;3299;42.004;24.868;2024-01-30T03:32:27;100223.38;;;2.77;70.09
6532;BME280;3299;42.004;24.868;2024-01-30T03:34:53;100263.25;;;2.98;70.57
6532;BME280;3299;42.004;24.868;2024-01-30T03:37:18;100247.22;;;2.79;70.94
6532;BME280;3299;42.004;24.868;2024-01-30T03:39:44;100260.06;;;2.70;71.53
6532;BME280;3299;42.004;24.868;2024-01-30T03:42:09;100255.75;;;2.75;70.91
6532;BME280;3299;42.004;24.868;2024-01-30T03:44:35;100249.81;;;2.72;71.31
6532;BME280;3299;42.004;24.868;2024-01-30T03:47:00;100250.72;;;2.66;71.21
6532;BME280;3299;42.004;24.868;2024-01-30T03:49:26;100260.00;;;2.78;71.06
6532;BME280;3299;42.004;24.868;2024-01-30T03:51:51;100291.38;;;2.96;71.20
6532;BME280;3299;42.004;24.868;2024-01-30T03:54:16;100219.41;;;2.40;71.14
6532;BME280;3299;42.004;24.868;2024-01-30T03:56:42;100267.75;;;2.64;71.51
6532;BME280;3299;42.004;24.868;2024-01-30T03:59:07;100299.97;;;2.86;72.21
6532;BME280;3299;42.004;24.868;2024-01-30T04:01:33;100280.53;;;2.64;73.04
6532;BME280;3299;42.004;24.868;2024-01-30T04:03:58;100147.47;;;1.84;73.44
6532;BME280;3299;42.004;24.868;2024-01-30T04:06:24;100269.56;;;2.53;73.65
6532;BME280;3299;42.004;24.868;2024-01-30T04:08:49;100200.91;;;2.07;73.34
6532;BME280;3299;42.004;24.868;2024-01-30T04:11:14;100193.41;;;1.83;75.02
6532;BME280;3299;42.004;24.868;2024-01-30T04:13:40;100288.44;;;2.30;76.13
6532;BME280;3299;42.004;24.868;2024-01-30T04:16:08;100240.94;;;2.00;76.20
6532;BME280;3299;42.004;24.868;2024-01-30T04:18:33;100283.38;;;2.25;75.65
6532;BME280;3299;42.004;24.868;2024-01-30T04:20:59;100257.00;;;2.19;76.05
6532;BME280;3299;42.004;24.868;2024-01-30T04:23:24;100298.50;;;2.55;75.93
6532;BME280;3299;42.004;24.868;2024-01-30T04:25:50;100164.50;;;1.78;75.84
6532;BME280;3299;42.004;24.868;2024-01-30T04:28:15;100196.63;;;2.13;74.79
6532;BME280;3299;42.004;24.868;2024-01-30T04:30:40;100260.22;;;2.48;74.53
6532;BME280;3299;42.004;24.868;2024-01-30T04:33:06;100285.66;;;2.66;74.48
6532;BME280;3299;42.004;24.868;2024-01-30T04:35:31;100298.59;;;2.43;76.56
6532;BME280;3299;42.004;24.868;2024-01-30T04:37:57;100303.88;;;2.10;78.09
6532;BME280;3299;42.004;24.868;2024-01-30T04:40:22;100194.41;;;1.52;78.39
6532;BME280;3299;42.004;24.868;2024-01-30T04:42:48;100234.31;;;1.63;80.10
6532;BME280;3299;42.004;24.868;2024-01-30T04:45:13;100290.25;;;2.14;79.88
6532;BME280;3299;42.004;24.868;2024-01-30T04:47:39;100207.84;;;1.82;78.57
6532;BME280;3299;42.004;24.868;2024-01-30T04:50:07;100210.38;;;1.88;78.10
6532;BME280;3299;42.004;24.868;2024-01-30T04:52:34;100206.97;;;1.92;77.75
6532;BME280;3299;42.004;24.868;2024-01-30T04:54:59;100303.63;;;2.55;77.61
6532;BME280;3299;42.004;24.868;2024-01-30T04:57:24;100218.00;;;1.97;77.62
6532;BME280;3299;42.004;24.868;2024-01-30T04:59:50;100263.84;;;2.17;78.63
6532;BME280;3299;42.004;24.868;2024-01-30T05:02:15;100308.72;;;2.52;78.54
6532;BME280;3299;42.004;24.868;2024-01-30T05:04:41;100218.75;;;2.14;78.50
6532;BME280;3299;42.004;24.868;2024-01-30T05:07:07;100272.06;;;2.61;77.35
6532;BME280;3299;42.004;24.868;2024-01-30T05:09:32;100325.56;;;2.83;76.94
6532;BME280;3299;42.004;24.868;2024-01-30T05:11:57;100284.81;;;2.65;76.67
6532;BME280;3299;42.004;24.868;2024-01-30T05:14:23;100234.91;;;2.16;77.90
6532;BME280;3299;42.004;24.868;2024-01-30T05:16:49;100231.53;;;2.10;78.16
6532;BME280;3299;42.004;24.868;2024-01-30T05:19:14;100328.34;;;2.53;78.62
6532;BME280;3299;42.004;24.868;2024-01-30T05:21:41;100260.38;;;2.24;78.58
6532;BME280;3299;42.004;24.868;2024-01-30T05:24:07;100234.03;;;2.19;77.77
6532;BME280;3299;42.004;24.868;2024-01-30T05:26:32;100280.75;;;2.34;78.52
6532;BME280;3299;42.004;24.868;2024-01-30T05:28:58;100244.28;;;2.11;78.78
6532;BME280;3299;42.004;24.868;2024-01-30T05:31:23;100330.84;;;2.59;79.27
6532;BME280;3299;42.004;24.868;2024-01-30T05:33:51;100251.91;;;2.17;79.23
6532;BME280;3299;42.004;24.868;2024-01-30T05:36:16;100327.34;;;2.72;78.25
6532;BME280;3299;42.004;24.868;2024-01-30T05:38:42;100345.94;;;2.95;76.95
6532;BME280;3299;42.004;24.868;2024-01-30T05:41:08;100251.00;;;2.27;76.40
6532;BME280;3299;42.004;24.868;2024-01-30T05:43:33;100355.25;;;2.99;76.32
6532;BME280;3299;42.004;24.868;2024-01-30T05:45:59;100270.56;;;2.33;76.54
6532;BME280;3299;42.004;24.868;2024-01-30T05:48:24;100257.91;;;2.10;78.20
6532;BME280;3299;42.004;24.868;2024-01-30T05:50:50;100336.78;;;2.61;78.32
6532;BME280;3299;42.004;24.868;2024-01-30T05:53:15;100244.28;;;2.14;77.79
6532;BME280;3299;42.004;24.868;2024-01-30T05:55:40;100333.47;;;2.47;78.55
6532;BME280;3299;42.004;24.868;2024-01-30T05:58:06;100327.53;;;2.39;79.31
6532;BME280;3299;42.004;24.868;2024-01-30T06:00:31;100348.84;;;2.40;80.07
6532;BME280;3299;42.004;24.868;2024-01-30T06:02:57;100269.16;;;1.73;82.04
6532;BME280;3299;42.004;24.868;2024-01-30T06:05:22;100281.09;;;1.61;82.04
6532;BME280;3299;42.004;24.868;2024-01-30T06:07:47;100340.53;;;1.97;81.95
6532;BME280;3299;42.004;24.868;2024-01-30T06:10:13;100330.34;;;1.85;81.88
6532;BME280;3299;42.004;24.868;2024-01-30T06:12:39;100344.72;;;2.10;81.87
6532;BME280;3299;42.004;24.868;2024-01-30T06:15:05;100256.34;;;1.85;81.63
6532;BME280;3299;42.004;24.868;2024-01-30T06:17:32;100234.22;;;1.81;80.06
6532;BME280;3299;42.004;24.868;2024-01-30T06:19:57;100337.72;;;2.48;80.27
6532;BME280;3299;42.004;24.868;2024-01-30T06:22:23;100239.31;;;1.90;80.51
6532;BME280;3299;42.004;24.868;2024-01-30T06:24:48;100317.38;;;2.33;81.55
6532;BME280;3299;42.004;24.868;2024-01-30T06:27:14;100268.94;;;2.15;81.10
6532;BME280;3299;42.004;24.868;2024-01-30T06:29:40;100296.97;;;2.30;81.05
6532;BME280;3299;42.004;24.868;2024-01-30T06:32:07;100324.06;;;2.52;81.04
6532;BME280;3299;42.004;24.868;2024-01-30T06:34:33;100282.50;;;2.26;79.34
6532;BME280;3299;42.004;24.868;2024-01-30T06:36:58;100234.09;;;2.05;78.93
6532;BME280;3299;42.004;24.868;2024-01-30T06:39:24;100317.34;;;2.39;78.04
6532;BME280;3299;42.004;24.868;2024-01-30T06:41:50;100345.34;;;2.54;78.46
6532;BME280;3299;42.004;24.868;2024-01-30T06:44:15;100295.25;;;2.34;78.37
6532;BME280;3299;42.004;24.868;2024-01-30T06:46:41;100284.09;;;2.45;77.16
6532;BME280;3299;42.004;24.868;2024-01-30T06:49:06;100289.06;;;2.65;75.12
6532;BME280;3299;42.004;24.868;2024-01-30T06:51:32;100258.50;;;2.53;74.43
6532;BME280;3299;42.004;24.868;2024-01-30T06:53:57;100235.56;;;2.45;74.83
6532;BME280;3299;42.004;24.868;2024-01-30T06:56:23;100349.16;;;3.15;74.67
6532;BME280;3299;42.004;24.868;2024-01-30T06:58:49;100234.69;;;2.49;75.42
6532;BME280;3299;42.004;24.868;2024-01-30T07:01:15;100247.31;;;2.67;75.83
6532;BME280;3299;42.004;24.868;2024-01-30T07:03:41;100290.53;;;2.96;75.06
6532;BME280;3299;42.004;24.868;2024-01-30T07:06:06;100290.50;;;2.99;75.45
6532;BME280;3299;42.004;24.868;2024-01-30T07:08:32;100358.19;;;3.57;73.74
6532;BME280;3299;42.004;24.868;2024-01-30T07:10:57;100353.78;;;3.71;73.05
6532;BME280;3299;42.004;24.868;2024-01-30T07:13:23;100240.94;;;3.12;72.75
6532;BME280;3299;42.004;24.868;2024-01-30T07:15:48;100329.97;;;3.61;71.67
6532;BME280;3299;42.004;24.868;2024-01-30T07:18:13;100311.38;;;3.47;72.10
6532;BME280;3299;42.004;24.868;2024-01-30T07:20:39;100263.03;;;3.19;72.78
6532;BME280;3299;42.004;24.868;2024-01-30T07:23:15;100345.28;;;3.67;72.80
6532;BME280;3299;42.004;24.868;2024-01-30T07:25:43;100360.50;;;3.81;71.41
6532;BME280;3299;42.004;24.868;2024-01-30T07:28:09;100364.81;;;3.76;71.38
6532;BME280;3299;42.004;24.868;2024-01-30T07:30:36;100302.19;;;3.25;71.83
6532;BME280;3299;42.004;24.868;2024-01-30T07:33:02;100360.75;;;3.57;72.92
6532;BME280;3299;42.004;24.868;2024-01-30T07:35:27;100273.66;;;2.75;73.78
6532;BME280;3299;42.004;24.868;2024-01-30T07:37:53;100272.75;;;2.81;74.53
6532;BME280;3299;42.004;24.868;2024-01-30T07:40:21;100323.66;;;3.09;74.59
6532;BME280;3299;42.004;24.868;2024-01-30T07:42:48;100349.16;;;3.18;74.86
6532;BME280;3299;42.004;24.868;2024-01-30T07:45:13;100345.78;;;3.13;74.54
6532;BME280;3299;42.004;24.868;2024-01-30T07:47:39;100332.97;;;3.18;73.76
6532;BME280;3299;42.004;24.868;2024-01-30T07:50:04;100279.47;;;2.94;74.10
6532;BME280;3299;42.004;24.868;2024-01-30T07:52:30;100284.47;;;3.04;73.55
6532;BME280;3299;42.004;24.868;2024-01-30T07:54:56;100275.31;;;2.82;73.94
6532;BME280;3299;42.004;24.868;2024-01-30T07:57:21;100366.91;;;3.36;74.41
6532;BME280;3299;42.004;24.868;2024-01-30T07:59:47;100298.22;;;2.91;74.92
6532;BME280;3299;42.004;24.868;2024-01-30T08:02:12;100364.47;;;3.24;76.09
6532;BME280;3299;42.004;24.868;2024-01-30T08:04:38;100356.84;;;3.17;76.18
6532;BME280;3299;42.004;24.868;2024-01-30T08:07:04;100352.69;;;3.05;76.16
6532;BME280;3299;42.004;24.868;2024-01-30T08:09:29;100357.72;;;3.14;76.58
6532;BME280;3299;42.004;24.868;2024-01-30T08:11:55;100272.09;;;2.59;76.89
6532;BME280;3299;42.004;24.868;2024-01-30T08:14:20;100254.34;;;2.37;77.40
6532;BME280;3299;42.004;24.868;2024-01-30T08:16:46;100346.84;;;2.85;78.34
6532;BME280;3299;42.004;24.868;2024-01-30T08:19:11;100267.03;;;2.49;78.30
6532;BME280;3299;42.004;24.868;2024-01-30T08:21:37;100248.31;;;2.47;77.76
6532;BME280;3299;42.004;24.868;2024-01-30T08:24:03;100358.53;;;3.18;77.69
6532;BME280;3299;42.004;24.868;2024-01-30T08:26:30;100355.94;;;3.22;76.56
6532;BME280;3299;42.004;24.868;2024-01-30T08:28:55;100360.28;;;3.16;77.03
6532;BME280;3299;42.004;24.868;2024-01-30T08:31:21;100356.94;;;3.06;77.02
6532;BME280;3299;42.004;24.868;2024-01-30T08:33:46;100258.44;;;2.60;77.43
6532;BME280;3299;42.004;24.868;2024-01-30T08:36:11;100264.28;;;2.76;77.01
6532;BME280;3299;42.004;24.868;2024-01-30T08:38:37;100340.47;;;3.36;76.28
6532;BME280;3299;42.004;24.868;2024-01-30T08:41:02;100309.06;;;3.20;76.59
6532;BME280;3299;42.004;24.868;2024-01-30T08:43:28;100327.66;;;3.40;75.71
6532;BME280;3299;42.004;24.868;2024-01-30T08:45:53;100353.81;;;3.69;75.95
6532;BME280;3299;42.004;24.868;2024-01-30T08:48:19;100268.03;;;3.31;75.28
6532;BME280;3299;42.004;24.868;2024-01-30T08:50:44;100336.59;;;3.83;74.72
6532;BME280;3299;42.004;24.868;2024-01-30T08:53:10;100316.25;;;3.68;75.28
6532;BME280;3299;42.004;24.868;2024-01-30T08:55:35;100361.31;;;3.83;74.34
6532;BME280;3299;42.004;24.868;2024-01-30T08:58:01;100273.88;;;3.43;74.11
6532;BME280;3299;42.004;24.868;2024-01-30T09:00:28;100311.88;;;3.78;74.11
6532;BME280;3299;42.004;24.868;2024-01-30T09:02:54;100337.25;;;4.00;73.96
6532;BME280;3299;42.004;24.868;2024-01-30T09:05:19;100273.59;;;3.67;72.61
6532;BME280;3299;42.004;24.868;2024-01-30T09:07:45;100286.19;;;3.85;72.13
6532;BME280;3299;42.004;24.868;2024-01-30T09:10:11;100355.66;;;4.29;71.43
6532;BME280;3299;42.004;24.868;2024-01-30T09:12:36;100254.72;;;3.77;71.24
6532;BME280;3299;42.004;24.868;2024-01-30T09:15:02;100349.59;;;4.35;71.34
6532;BME280;3299;42.004;24.868;2024-01-30T09:17:28;100324.16;;;4.21;70.86
6532;BME280;3299;42.004;24.868;2024-01-30T09:19:53;100257.59;;;3.52;71.10
6532;BME280;3299;42.004;24.868;2024-01-30T09:22:19;100305.63;;;4.04;70.98
6532;BME280;3299;42.004;24.868;2024-01-30T09:24:44;100323.19;;;4.30;71.35
6532;BME280;3299;42.004;24.868;2024-01-30T09:27:10;100252.72;;;4.00;71.21
6532;BME280;3299;42.004;24.868;2024-01-30T09:29:35;100296.66;;;4.35;71.06
6532;BME280;3299;42.004;24.868;2024-01-30T09:32:01;100235.50;;;4.11;70.96
6532;BME280;3299;42.004;24.868;2024-01-30T09:34:27;100326.44;;;4.45;70.11
6532;BME280;3299;42.004;24.868;2024-01-30T09:36:52;100283.75;;;4.40;70.29
6532;BME280;3299;42.004;24.868;2024-01-30T09:39:17;100315.94;;;4.59;69.56
6532;BME280;3299;42.004;24.868;2024-01-30T09:41:48;100329.53;;;4.65;69.64
6532;BME280;3299;42.004;24.868;2024-01-30T09:44:16;100238.78;;;4.22;68.56
6532;BME280;3299;42.004;24.868;2024-01-30T09:46:42;100326.78;;;4.77;68.75
6532;BME280;3299;42.004;24.868;2024-01-30T09:49:08;100332.66;;;4.85;68.82
6532;BME280;3299;42.004;24.868;2024-01-30T09:51:34;100271.56;;;4.55;68.15
6532;BME280;3299;42.004;24.868;2024-01-30T09:54:02;100324.06;;;4.88;68.25
6532;BME280;3299;42.004;24.868;2024-01-30T09:56:28;100242.78;;;4.38;67.64
6532;BME280;3299;42.004;24.868;2024-01-30T09:58:54;100324.78;;;4.97;68.20
6532;BME280;3299;42.004;24.868;2024-01-30T10:01:19;100272.16;;;4.72;67.77
6532;BME280;3299;42.004;24.868;2024-01-30T10:03:45;100228.88;;;4.54;66.75
6532;BME280;3299;42.004;24.868;2024-01-30T10:06:11;100244.94;;;4.64;66.60
6532;BME280;3299;42.004;24.868;2024-01-30T10:08:37;100212.72;;;4.49;66.13
6532;BME280;3299;42.004;24.868;2024-01-30T10:11:03;100317.59;;;5.17;64.96
6532;BME280;3299;42.004;24.868;2024-01-30T10:13:29;100225.22;;;4.69;64.43
6532;BME280;3299;42.004;24.868;2024-01-30T10:15:55;100237.75;;;4.85;63.24
6532;BME280;3299;42.004;24.868;2024-01-30T10:18:22;100325.69;;;5.43;62.27
6532;BME280;3299;42.004;24.868;2024-01-30T10:20:48;100329.81;;;5.52;61.29
6532;BME280;3299;42.004;24.868;2024-01-30T10:23:14;100317.41;;;5.29;62.25
6532;BME280;3299;42.004;24.868;2024-01-30T10:25:39;100331.00;;;5.34;63.08
6532;BME280;3299;42.004;24.868;2024-01-30T10:28:05;100310.50;;;5.31;62.29
6532;BME280;3299;42.004;24.868;2024-01-30T10:30:31;100276.66;;;5.11;62.07
6532;BME280;3299;42.004;24.868;2024-01-30T10:32:56;100328.34;;;5.39;62.00
6532;BME280;3299;42.004;24.868;2024-01-30T10:35:22;100240.19;;;4.94;61.58
6532;BME280;3299;42.004;24.868;2024-01-30T10:37:48;100301.19;;;5.27;60.67
6532;BME280;3299;42.004;24.868;2024-01-30T10:40:14;100262.25;;;5.03;60.19
6532;BME280;3299;42.004;24.868;2024-01-30T10:42:44;100275.53;;;5.26;58.75
6532;BME280;3299;42.004;24.868;2024-01-30T10:45:13;100308.59;;;5.42;59.01
6532;BME280;3299;42.004;24.868;2024-01-30T10:47:42;100219.66;;;4.94;58.04
6532;BME280;3299;42.004;24.868;2024-01-30T10:50:09;100282.94;;;5.42;58.26
6532;BME280;3299;42.004;24.868;2024-01-30T10:52:36;100311.84;;;5.52;58.33
6532;BME280;3299;42.004;24.868;2024-01-30T10:55:03;100278.88;;;5.32;58.87
6532;BME280;3299;42.004;24.868;2024-01-30T10:57:34;100310.06;;;5.55;57.03
6532;BME280;3299;42.004;24.868;2024-01-30T11:00:00;100310.78;;;5.63;55.97
6532;BME280;3299;42.004;24.868;2024-01-30T11:02:27;100259.19;;;5.31;56.21
6532;BME280;3299;42.004;24.868;2024-01-30T11:04:57;100194.72;;;5.02;56.87
6532;BME280;3299;42.004;24.868;2024-01-30T11:07:25;100254.72;;;5.41;56.21
6532;BME280;3299;42.004;24.868;2024-01-30T11:12:27;100246.09;;;5.45;54.54
6532;BME280;3299;42.004;24.868;2024-01-30T11:15:07;100277.56;;;5.54;55.25
6532;BME280;3299;42.004;24.868;2024-01-30T11:20:15;100282.44;;;5.69;54.55
6532;BME280;3299;42.004;24.868;2024-01-30T11:22:42;100281.50;;;5.73;54.54
6532;BME280;3299;42.004;24.868;2024-01-30T11:25:11;100206.16;;;5.30;53.65
6532;BME280;3299;42.004;24.868;2024-01-30T11:27:38;100117.34;;;4.79;53.32
6532;BME280;3299;42.004;24.868;2024-01-30T11:30:04;100232.34;;;5.47;53.61
6532;BME280;3299;42.004;24.868;2024-01-30T11:32:30;100230.09;;;5.32;54.18
6532;BME280;3299;42.004;24.868;2024-01-30T11:34:55;100228.38;;;5.33;53.86
6532;BME280;3299;42.004;24.868;2024-01-30T11:37:21;100234.47;;;5.27;54.56
6532;BME280;3299;42.004;24.868;2024-01-30T11:39:51;100217.44;;;5.22;54.16
6532;BME280;3299;42.004;24.868;2024-01-30T11:42:16;100175.72;;;5.12;53.09
6532;BME280;3299;42.004;24.868;2024-01-30T11:44:47;100176.69;;;5.07;53.29
6532;BME280;3299;42.004;24.868;2024-01-30T11:47:12;100232.47;;;5.41;53.61
6532;BME280;3299;42.004;24.868;2024-01-30T11:49:37;100180.63;;;5.24;53.16
6532;BME280;3299;42.004;24.868;2024-01-30T11:52:04;100192.53;;;5.28;53.53
6532;BME280;3299;42.004;24.868;2024-01-30T11:54:30;100268.91;;;5.61;53.84
6532;BME280;3299;42.004;24.868;2024-01-30T11:56:55;100244.16;;;5.57;53.69
6532;BME280;3299;42.004;24.868;2024-01-30T11:59:20;100247.44;;;5.64;53.76
6532;BME280;3299;42.004;24.868;2024-01-30T12:01:46;100204.19;;;5.44;54.05
6532;BME280;3299;42.004;24.868;2024-01-30T12:04:12;100251.63;;;5.68;53.66
6532;BME280;3299;42.004;24.868;2024-01-30T12:06:38;100246.19;;;5.84;53.20
6532;BME280;3299;42.004;24.868;2024-01-30T12:09:05;100201.25;;;5.62;53.74
6532;BME280;3299;42.004;24.868;2024-01-30T12:11:31;100162.41;;;5.36;53.95
6532;BME280;3299;42.004;24.868;2024-01-30T12:13:57;100224.25;;;5.68;54.09
6532;BME280;3299;42.004;24.868;2024-01-30T12:16:22;100233.97;;;5.95;53.51
6532;BME280;3299;42.004;24.868;2024-01-30T12:18:48;100161.78;;;5.66;52.97
6532;BME280;3299;42.004;24.868;2024-01-30T12:21:17;100188.09;;;5.77;52.81
6532;BME280;3299;42.004;24.868;2024-01-30T12:23:43;100202.44;;;5.89;53.17
6532;BME280;3299;42.004;24.868;2024-01-30T12:26:10;100161.84;;;5.65;53.26
6532;BME280;3299;42.004;24.868;2024-01-30T12:28:36;100203.00;;;5.60;54.13
6532;BME280;3299;42.004;24.868;2024-01-30T12:31:05;100167.16;;;5.56;52.95
6532;BME280;3299;42.004;24.868;2024-01-30T12:33:30;100153.44;;;5.55;53.01
6532;BME280;3299;42.004;24.868;2024-01-30T12:35:57;100222.00;;;5.94;53.16
6532;BME280;3299;42.004;24.868;2024-01-30T12:38:24;100215.56;;;6.15;52.04
6532;BME280;3299;42.004;24.868;2024-01-30T12:40:54;100130.97;;;5.66;52.07
6532;BME280;3299;42.004;24.868;2024-01-30T12:43:20;100135.16;;;5.70;52.36
6532;BME280;3299;42.004;24.868;2024-01-30T12:45:46;100219.94;;;6.11;52.97
6532;BME280;3299;42.004;24.868;2024-01-30T12:48:12;100224.41;;;6.02;53.66
6532;BME280;3299;42.004;24.868;2024-01-30T12:50:38;100168.00;;;5.56;53.70
6532;BME280;3299;42.004;24.868;2024-01-30T12:53:03;100160.34;;;5.55;53.82
6532;BME280;3299;42.004;24.868;2024-01-30T12:55:29;100174.38;;;5.78;53.20
6532;BME280;3299;42.004;24.868;2024-01-30T12:57:55;100155.56;;;5.38;53.90
6532;BME280;3299;42.004;24.868;2024-01-30T13:00:21;100172.81;;;5.30;56.06
6532;BME280;3299;42.004;24.868;2024-01-30T13:02:47;100155.28;;;5.09;55.81
6532;BME280;3299;42.004;24.868;2024-01-30T13:05:13;100148.63;;;4.98;55.45
6532;BME280;3299;42.004;24.868;2024-01-30T13:07:39;100161.22;;;5.10;55.01